Time;durP1;ratioP1;P1;durP2;ratioP2;P2;SDS_P1;SDS_P2;PMS_P1;PMS_P2;Temp;Humidity;BMP_temperature;BMP_pressure;BME280_temperature;BME280_humidity;BME280_pressure;Samples;Min_cycle;Max_cycle;Signal;HPM_P1;HPM_P2
2022/01/16 00:00:47;;;;;;;31.97;20.47;;;2.50;99.90;;;;;;5033285;28;20412;-59
2022/01/16 00:05:57;;;;;;;30.00;20.50;;;2.80;99.90;;;;;;5033788;28;20444;-58
2022/01/16 00:08:23;;;;;;;27.43;19.43;;;2.80;99.90;;;;;;5033157;28;20421;-57
2022/01/16 00:10:48;;;;;;;27.97;19.87;;;2.50;99.90;;;;;;5033217;28;20591;-57
2022/01/16 00:13:14;;;;;;;31.70;20.43;;;2.30;99.90;;;;;;5032880;28;20433;-59
2022/01/16 00:15:43;;;;;;;35.93;22.90;;;2.30;99.90;;;;;;5033123;28;20167;-59
2022/01/16 00:18:19;;;;;;;30.70;19.40;;;2.30;99.90;;;;;;5032910;28;20225;-58
2022/01/16 00:20:44;;;;;;;34.13;21.67;;;2.20;99.90;;;;;;5033320;28;20382;-59
2022/01/16 00:23:10;;;;;;;35.63;22.63;;;2.30;99.90;;;;;;5032966;28;20406;-56
2022/01/16 00:25:36;;;;;;;28.50;19.03;;;2.40;99.90;;;;;;5016151;28;20168;-59
2022/01/16 00:28:02;;;;;;;31.90;20.70;;;2.60;99.90;;;;;;5023138;28;20437;-59
2022/01/16 00:30:28;;;;;;;27.13;18.77;;;2.60;99.90;;;;;;5033015;28;20175;-58
2022/01/16 00:32:59;;;;;;;28.27;19.47;;;2.50;99.90;;;;;;5032887;28;20402;-58
2022/01/16 00:35:25;;;;;;;31.27;22.37;;;2.60;99.90;;;;;;5032874;28;20155;-58
2022/01/16 00:37:52;;;;;;;31.30;20.27;;;2.60;99.90;;;;;;5032603;28;20557;-57
2022/01/16 00:40:18;;;;;;;31.80;20.47;;;2.70;99.90;;;;;;5033354;28;20990;-54
2022/01/16 00:42:44;;;;;;;34.03;21.60;;;2.70;99.90;;;;;;5036581;28;20401;-58
2022/01/16 00:45:10;;;;;;;33.97;21.47;;;2.50;99.90;;;;;;5036939;28;20406;-57
2022/01/16 00:47:36;;;;;;;27.93;19.87;;;2.40;99.90;;;;;;5036991;28;20186;-59
2022/01/16 00:50:02;;;;;;;31.30;20.67;;;2.40;99.90;;;;;;5036738;28;20410;-58
2022/01/16 00:52:28;;;;;;;28.90;18.93;;;2.40;99.90;;;;;;5036781;28;20406;-59
2022/01/16 00:54:55;;;;;;;33.53;19.70;;;2.30;99.90;;;;;;5036554;28;20767;-56
2022/01/16 00:57:20;;;;;;;33.20;21.90;;;2.10;99.90;;;;;;5035881;28;20706;-58
2022/01/16 00:59:47;;;;;;;31.70;22.77;;;2.30;99.90;;;;;;5036641;28;20409;-55
2022/01/16 01:02:13;;;;;;;30.50;21.60;;;2.30;99.90;;;;;;5022161;28;20175;-57
2022/01/16 01:04:39;;;;;;;30.40;20.37;;;2.40;99.90;;;;;;5017502;28;20403;-57
2022/01/16 01:07:04;;;;;;;28.43;20.30;;;2.40;99.90;;;;;;5016822;28;20210;-55
2022/01/16 01:09:30;;;;;;;31.00;22.07;;;2.40;99.90;;;;;;5016638;28;20410;-57
2022/01/16 01:11:56;;;;;;;29.83;19.90;;;2.40;99.90;;;;;;5016343;28;20195;-57
2022/01/16 01:14:40;;;;;;;34.87;20.90;;;2.40;99.90;;;;;;5017134;28;20168;-58
2022/01/16 01:17:08;;;;;;;36.00;22.47;;;2.40;99.90;;;;;;5017019;28;20254;-58
2022/01/16 01:19:35;;;;;;;36.07;23.57;;;2.30;99.90;;;;;;5017262;28;20410;-58
2022/01/16 01:22:02;;;;;;;35.30;21.60;;;2.30;99.90;;;;;;5016600;28;20411;-58
2022/01/16 01:24:29;;;;;;;27.70;18.70;;;2.40;99.90;;;;;;5016672;28;20395;-59
2022/01/16 01:27:23;;;;;;;28.37;18.30;;;2.40;99.90;;;;;;5017336;28;20467;-59
2022/01/16 01:29:59;;;;;;;35.63;22.53;;;2.40;99.90;;;;;;5036006;28;20401;-57
2022/01/16 01:32:25;;;;;;;33.73;21.40;;;2.40;99.90;;;;;;5036308;28;20481;-56
2022/01/16 01:34:51;;;;;;;32.27;22.50;;;2.50;99.90;;;;;;5035993;28;20852;-59
2022/01/16 01:37:16;;;;;;;31.10;21.00;;;2.70;99.90;;;;;;5062861;22;20469;-60
2022/01/16 01:39:42;;;;;;;36.97;22.97;;;2.60;99.90;;;;;;5018376;28;20191;-62
2022/01/16 01:42:10;;;;;;;33.17;21.33;;;2.60;99.90;;;;;;5035669;28;20167;-61
2022/01/16 01:52:53;;;;;;;33.20;24.00;;;2.70;99.90;;;;;;5034494;28;20905;-61
2022/01/16 01:55:20;;;;;;;39.40;25.40;;;2.60;99.90;;;;;;5035956;28;20394;-62
2022/01/16 01:57:46;;;;;;;32.33;21.93;;;2.50;99.90;;;;;;5035512;28;20884;-62
2022/01/16 02:00:17;;;;;;;37.80;22.60;;;2.60;99.90;;;;;;5035570;28;20441;-62
2022/01/16 02:05:20;;;;;;;34.80;23.30;;;2.80;99.90;;;;;;5035546;28;20443;-62
2022/01/16 02:07:46;;;;;;;34.40;23.20;;;2.80;99.90;;;;;;5034992;28;20438;-61
2022/01/16 02:10:12;;;;;;;33.40;20.80;;;2.80;99.90;;;;;;5035506;28;20640;-61
2022/01/16 02:12:42;;;;;;;35.60;21.90;;;2.80;99.90;;;;;;5035175;28;20408;-61
2022/01/16 02:15:33;;;;;;;31.30;20.20;;;3.00;99.90;;;;;;5035616;28;20162;-61
2022/01/16 02:31:44;;;;;;;32.53;22.60;;;3.10;99.90;;;;;;4995026;28;20398;-62
2022/01/16 02:36:58;;;;;;;37.83;24.00;;;2.70;99.90;;;;;;4996056;28;20443;-58
2022/01/16 02:39:30;;;;;;;34.33;22.33;;;2.60;99.90;;;;;;5030225;28;20454;-60
2022/01/16 02:41:58;;;;;;;33.23;22.90;;;2.60;99.90;;;;;;5034885;28;20402;-61
2022/01/16 02:46:58;;;;;;;37.30;25.00;;;2.60;99.90;;;;;;5017991;28;20416;-60
2022/01/16 02:49:26;;;;;;;30.70;21.40;;;2.80;99.90;;;;;;5035169;28;20425;-61
2022/01/16 02:51:57;;;;;;;37.10;25.67;;;2.90;99.90;;;;;;5034633;28;20406;-62
2022/01/16 02:54:23;;;;;;;37.33;26.20;;;2.80;99.90;;;;;;5034310;28;20965;-61
2022/01/16 02:56:49;;;;;;;36.40;23.17;;;2.80;99.90;;;;;;5016412;28;20962;-62
2022/01/16 02:59:17;;;;;;;38.70;25.87;;;2.60;99.90;;;;;;5014876;28;20434;-58
2022/01/16 03:01:43;;;;;;;42.70;27.20;;;2.70;99.90;;;;;;5014818;28;20449;-61
2022/01/16 03:04:09;;;;;;;41.93;26.77;;;2.70;99.90;;;;;;5014771;28;21005;-60
2022/01/16 03:06:35;;;;;;;36.33;25.00;;;2.90;99.90;;;;;;5014856;28;20399;-62
2022/01/16 03:09:01;;;;;;;33.60;23.70;;;2.80;99.90;;;;;;5028731;28;20337;-60
2022/01/16 03:13:55;;;;;;;36.50;23.37;;;2.70;99.90;;;;;;5034473;28;20406;-61
2022/01/16 03:16:22;;;;;;;37.50;24.07;;;2.30;99.90;;;;;;5034338;28;20502;-62
2022/01/16 03:24:18;;;;;;;30.80;21.47;;;2.70;99.90;;;;;;5034217;28;20448;-61
2022/01/16 03:26:44;;;;;;;34.27;23.37;;;2.70;99.90;;;;;;5035307;28;20827;-61
2022/01/16 03:29:09;;;;;;;38.13;25.47;;;2.70;99.90;;;;;;5034226;28;20191;-62
2022/01/16 03:31:35;;;;;;;36.50;23.63;;;2.60;99.90;;;;;;5034342;28;20460;-61
2022/01/16 03:34:01;;;;;;;36.37;25.40;;;2.70;99.90;;;;;;5017333;28;20189;-60
2022/01/16 03:36:26;;;;;;;41.23;26.17;;;2.90;99.90;;;;;;5034902;28;20226;-61
2022/01/16 03:38:52;;;;;;;33.40;23.27;;;2.90;99.90;;;;;;5033401;28;20302;-60
2022/01/16 03:41:18;;;;;;;36.30;25.23;;;2.90;99.90;;;;;;5033688;28;20174;-59
2022/01/16 03:43:44;;;;;;;40.23;26.90;;;2.90;99.90;;;;;;5034039;28;20909;-59
2022/01/16 03:46:09;;;;;;;33.90;22.70;;;2.90;99.90;;;;;;5033671;28;20171;-60
2022/01/16 03:48:35;;;;;;;34.27;23.63;;;2.80;99.90;;;;;;5033712;28;20211;-61
2022/01/16 03:51:01;;;;;;;28.60;21.67;;;2.80;99.90;;;;;;5033887;28;20163;-61
2022/01/16 03:53:26;;;;;;;27.90;20.30;;;2.80;99.90;;;;;;5033713;28;20538;-60
2022/01/16 03:55:52;;;;;;;32.80;23.73;;;2.60;99.90;;;;;;5033661;28;20163;-62
2022/01/16 03:58:18;;;;;;;27.93;22.77;;;2.30;99.90;;;;;;5033776;28;20202;-62
2022/01/16 04:00:44;;;;;;;26.43;21.20;;;2.20;99.90;;;;;;5033689;28;20167;-61
2022/01/16 04:03:11;;;;;;;30.63;22.50;;;2.10;99.90;;;;;;5033716;28;20233;-61
2022/01/16 04:05:36;;;;;;;33.30;22.60;;;2.20;99.90;;;;;;5033307;28;20399;-61
2022/01/16 04:08:02;;;;;;;33.97;24.20;;;2.20;99.90;;;;;;5033200;28;20964;-61
2022/01/16 04:10:28;;;;;;;33.83;23.30;;;2.20;99.90;;;;;;5033702;28;20179;-61
2022/01/16 04:12:54;;;;;;;31.20;24.37;;;2.10;99.90;;;;;;5033015;28;20184;-62
2022/01/16 04:17:45;;;;;;;27.57;21.80;;;2.10;99.90;;;;;;5033391;28;20228;-61
2022/01/16 04:20:15;;;;;;;31.53;21.13;;;2.10;99.90;;;;;;5033169;28;20621;-61
2022/01/16 04:22:45;;;;;;;29.50;21.40;;;2.20;99.90;;;;;;5015162;28;20648;-59
2022/01/16 04:25:11;;;;;;;31.07;22.37;;;2.30;99.90;;;;;;5033015;28;20440;-61
2022/01/16 04:27:37;;;;;;;36.60;24.87;;;2.40;99.90;;;;;;5033094;28;20464;-61
2022/01/16 04:30:03;;;;;;;30.17;21.70;;;2.30;99.90;;;;;;5033540;28;20511;-60
2022/01/16 04:32:29;;;;;;;35.00;26.00;;;2.20;99.90;;;;;;5032986;28;20225;-61
2022/01/16 04:34:54;;;;;;;34.90;24.23;;;2.30;99.90;;;;;;5033007;28;20452;-61
2022/01/16 04:37:20;;;;;;;33.87;24.13;;;2.30;99.90;;;;;;5032845;28;20214;-61
2022/01/16 04:39:50;;;;;;;33.03;22.50;;;2.30;99.90;;;;;;5032759;28;20221;-62
2022/01/16 04:45:02;;;;;;;30.90;21.90;;;2.30;99.90;;;;;;5034356;28;20811;-62
2022/01/16 04:47:29;;;;;;;28.53;21.67;;;2.40;99.90;;;;;;5034464;28;20433;-62
2022/01/16 04:49:54;;;;;;;34.13;24.10;;;2.30;99.90;;;;;;5024900;28;20418;-61
2022/01/16 04:52:20;;;;;;;29.03;20.13;;;2.10;99.90;;;;;;5014359;28;20415;-62
2022/01/16 04:54:45;;;;;;;30.00;22.50;;;2.10;99.90;;;;;;5013385;28;20255;-61
2022/01/16 04:57:13;;;;;;;31.73;22.80;;;2.10;99.90;;;;;;5012798;28;20192;-61
2022/01/16 04:59:39;;;;;;;30.40;20.97;;;2.10;99.90;;;;;;5013598;28;20299;-61
2022/01/16 05:02:05;;;;;;;31.03;22.73;;;2.20;99.90;;;;;;5013118;28;20493;-62
2022/01/16 05:04:30;;;;;;;28.90;20.60;;;2.10;99.90;;;;;;5012958;28;20410;-62
2022/01/16 05:06:56;;;;;;;27.70;20.87;;;2.10;99.90;;;;;;5013035;28;20231;-62
2022/01/16 05:09:21;;;;;;;30.50;22.93;;;2.00;99.90;;;;;;5012458;28;20285;-61
2022/01/16 05:11:53;;;;;;;28.87;21.70;;;2.00;99.90;;;;;;5033547;28;20170;-61
2022/01/16 05:17:03;;;;;;;28.93;21.03;;;2.30;99.90;;;;;;5033264;28;20456;-60
2022/01/16 05:19:29;;;;;;;32.33;23.40;;;2.40;99.90;;;;;;5015121;28;20537;-62
2022/01/16 05:21:54;;;;;;;30.67;21.50;;;2.30;99.90;;;;;;5014028;28;20527;-62
2022/01/16 05:24:20;;;;;;;29.93;23.40;;;2.40;99.90;;;;;;5013637;28;20230;-60
2022/01/16 05:26:45;;;;;;;27.37;20.73;;;2.40;99.90;;;;;;5015314;28;20186;-62
2022/01/16 05:29:12;;;;;;;28.07;21.13;;;2.30;99.90;;;;;;5006123;28;20201;-60
2022/01/16 05:31:44;;;;;;;31.50;22.23;;;2.20;99.90;;;;;;5016270;28;20187;-62
2022/01/16 05:34:11;;;;;;;28.60;21.50;;;1.90;99.90;;;;;;5016746;28;20429;-60
2022/01/16 05:36:37;;;;;;;27.73;20.93;;;1.70;99.90;;;;;;5017136;28;20558;-63
2022/01/16 05:39:02;;;;;;;25.13;20.50;;;1.70;99.90;;;;;;5030788;28;20481;-62
2022/01/16 05:41:28;;;;;;;30.93;22.70;;;1.60;99.90;;;;;;5035823;28;20548;-62
2022/01/16 05:43:54;;;;;;;29.63;23.40;;;1.80;99.90;;;;;;5035961;28;20514;-61
2022/01/16 05:46:19;;;;;;;32.70;24.97;;;1.90;99.90;;;;;;5036121;28;20178;-61
2022/01/16 05:48:45;;;;;;;29.73;21.40;;;1.80;99.90;;;;;;5036031;28;20230;-62
2022/01/16 05:51:11;;;;;;;31.57;24.33;;;1.90;99.90;;;;;;5018125;28;20173;-61
2022/01/16 05:53:37;;;;;;;31.13;23.07;;;1.90;99.90;;;;;;5035518;28;20182;-62
2022/01/16 05:56:03;;;;;;;26.47;20.57;;;1.80;99.90;;;;;;5035913;28;20174;-61
2022/01/16 05:58:29;;;;;;;27.40;21.50;;;1.60;99.90;;;;;;5035326;28;20941;-58
2022/01/16 06:00:55;;;;;;;22.30;17.70;;;1.80;99.90;;;;;;5035649;28;20405;-61
2022/01/16 06:03:21;;;;;;;26.67;19.90;;;1.70;99.90;;;;;;5035880;28;20179;-61
2022/01/16 06:05:47;;;;;;;28.00;21.60;;;1.40;99.90;;;;;;5035738;28;20168;-61
2022/01/16 06:08:14;;;;;;;26.20;20.37;;;1.50;99.90;;;;;;5034997;28;20441;-61
2022/01/16 06:10:40;;;;;;;27.73;22.73;;;1.40;99.90;;;;;;5035559;28;20409;-60
2022/01/16 06:13:06;;;;;;;31.33;23.13;;;1.40;99.90;;;;;;5035119;28;20459;-60
2022/01/16 06:15:32;;;;;;;27.30;21.43;;;1.50;99.90;;;;;;5035449;28;20406;-60
2022/01/16 06:17:58;;;;;;;25.37;21.20;;;1.40;99.90;;;;;;5035566;28;20207;-60
2022/01/16 06:20:23;;;;;;;30.67;22.60;;;1.60;99.90;;;;;;5035714;28;20406;-61
2022/01/16 06:22:49;;;;;;;24.00;20.30;;;1.50;99.90;;;;;;5035524;28;20468;-60
2022/01/16 06:25:15;;;;;;;31.03;22.50;;;1.60;99.90;;;;;;5034919;28;20168;-59
2022/01/16 06:27:41;;;;;;;26.67;19.87;;;1.50;99.90;;;;;;5034920;28;20197;-61
2022/01/16 06:30:09;;;;;;;24.77;21.20;;;1.40;99.90;;;;;;5035553;28;20412;-58
2022/01/16 06:32:35;;;;;;;29.70;22.50;;;1.50;99.90;;;;;;5035292;28;20501;-59
2022/01/16 06:35:02;;;;;;;28.80;21.33;;;1.10;99.90;;;;;;5035153;28;20412;-61
2022/01/16 06:37:27;;;;;;;26.77;21.17;;;1.30;99.90;;;;;;5034354;28;20458;-61
2022/01/16 06:39:53;;;;;;;24.40;18.80;;;1.30;99.90;;;;;;5034552;28;20555;-61
2022/01/16 06:42:19;;;;;;;24.47;19.73;;;1.20;99.90;;;;;;5035521;28;20265;-60
2022/01/16 06:44:44;;;;;;;32.47;23.10;;;1.30;99.90;;;;;;5036056;28;20171;-61
2022/01/16 06:47:10;;;;;;;28.93;21.80;;;1.30;99.90;;;;;;5030339;28;20262;-61
2022/01/16 06:49:36;;;;;;;34.60;24.33;;;1.10;99.90;;;;;;5015226;28;20171;-60
2022/01/16 06:52:02;;;;;;;30.40;22.17;;;1.00;99.90;;;;;;5014943;28;20181;-59
2022/01/16 06:54:27;;;;;;;31.33;22.13;;;1.00;99.90;;;;;;5014825;28;20763;-62
2022/01/16 06:56:53;;;;;;;30.97;21.63;;;1.00;99.90;;;;;;5014645;28;20301;-62
2022/01/16 06:59:18;;;;;;;30.30;23.23;;;0.80;99.90;;;;;;5014923;28;20231;-60
2022/01/16 07:01:44;;;;;;;28.07;23.27;;;0.60;99.90;;;;;;5014737;28;20506;-61
2022/01/16 07:04:10;;;;;;;30.17;22.80;;;0.60;99.90;;;;;;5014697;28;20635;-60
2022/01/16 07:06:35;;;;;;;28.20;21.57;;;0.40;99.90;;;;;;5017780;28;20181;-61
2022/01/16 07:09:01;;;;;;;30.30;22.80;;;0.40;99.90;;;;;;5032340;28;20194;-56
2022/01/16 07:11:26;;;;;;;30.80;23.40;;;0.50;99.90;;;;;;5036551;28;20560;-60
2022/01/16 07:13:52;;;;;;;32.87;23.20;;;0.50;99.90;;;;;;5037808;28;20255;-58
2022/01/16 07:16:18;;;;;;;29.60;21.60;;;0.60;99.90;;;;;;5037390;28;20204;-59
2022/01/16 07:18:43;;;;;;;30.60;22.17;;;0.70;99.90;;;;;;5036574;28;20189;-61
2022/01/16 07:21:13;;;;;;;27.70;20.90;;;0.70;99.90;;;;;;5036004;28;20171;-61
2022/01/16 07:23:43;;;;;;;24.77;20.00;;;0.80;99.90;;;;;;5036282;28;20195;-60
2022/01/16 07:26:08;;;;;;;25.90;20.40;;;0.70;99.90;;;;;;5036432;28;20409;-60
2022/01/16 07:28:34;;;;;;;24.90;18.83;;;0.70;99.90;;;;;;5018177;28;21013;-59
2022/01/16 07:31:00;;;;;;;29.47;20.33;;;0.70;99.90;;;;;;5036475;28;20173;-60
2022/01/16 07:33:25;;;;;;;27.10;21.00;;;0.60;99.90;;;;;;5036431;28;20167;-60
2022/01/16 07:35:51;;;;;;;25.43;20.47;;;0.50;99.90;;;;;;5035804;28;20204;-61
2022/01/16 07:38:16;;;;;;;27.60;21.20;;;0.50;99.90;;;;;;5063692;22;20309;-59
2022/01/16 07:40:42;;;;;;;26.97;20.50;;;0.40;99.90;;;;;;5034888;28;20582;-60
2022/01/16 07:43:08;;;;;;;27.93;19.70;;;0.50;99.90;;;;;;5034037;28;20174;-61
2022/01/16 07:45:34;;;;;;;28.63;21.27;;;0.70;99.90;;;;;;5034527;28;20162;-60
2022/01/16 07:48:00;;;;;;;28.07;20.57;;;0.60;99.90;;;;;;5034597;28;20269;-59
2022/01/16 07:50:26;;;;;;;28.57;22.17;;;0.50;99.90;;;;;;5033680;28;21008;-61
2022/01/16 07:52:51;;;;;;;26.90;21.30;;;0.50;99.90;;;;;;5034502;28;20541;-61
2022/01/16 07:55:20;;;;;;;33.63;25.43;;;0.50;99.90;;;;;;5036291;28;20400;-61
2022/01/16 07:57:46;;;;;;;26.47;21.03;;;0.50;99.90;;;;;;5037152;28;20268;-61
2022/01/16 08:00:12;;;;;;;30.97;22.50;;;0.70;99.90;;;;;;5035379;28;20844;-60
2022/01/16 08:02:38;;;;;;;23.77;18.33;;;0.70;99.90;;;;;;5034228;28;20242;-61
2022/01/16 08:05:04;;;;;;;28.93;20.10;;;0.70;99.90;;;;;;5034622;28;20495;-60
2022/01/16 08:07:30;;;;;;;26.63;21.43;;;0.80;99.90;;;;;;5034319;28;20401;-61
2022/01/16 08:09:55;;;;;;;26.93;19.60;;;0.80;99.90;;;;;;5033722;28;20784;-60
2022/01/16 08:12:22;;;;;;;25.67;21.03;;;1.00;99.90;;;;;;5033971;28;20194;-60
2022/01/16 08:14:47;;;;;;;28.43;21.50;;;1.10;99.90;;;;;;5033918;28;20216;-59
2022/01/16 08:17:13;;;;;;;28.87;21.70;;;1.10;99.90;;;;;;5033818;28;20449;-60
2022/01/16 08:19:38;;;;;;;28.03;22.60;;;0.90;99.90;;;;;;5033709;28;20202;-58
2022/01/16 08:22:04;;;;;;;27.60;22.10;;;1.00;99.90;;;;;;5004648;28;20651;-59
2022/01/16 08:24:30;;;;;;;31.53;23.47;;;1.10;99.90;;;;;;5013371;28;20196;-62
2022/01/16 08:26:55;;;;;;;29.93;22.90;;;1.20;99.90;;;;;;5013714;28;20538;-59
2022/01/16 08:29:21;;;;;;;31.63;23.33;;;1.20;99.90;;;;;;5013402;28;20191;-60
2022/01/16 08:31:47;;;;;;;32.80;23.43;;;1.30;99.90;;;;;;5014088;28;20164;-60
2022/01/16 08:34:12;;;;;;;30.87;22.47;;;1.40;99.90;;;;;;5013973;28;20210;-59
2022/01/16 08:36:38;;;;;;;28.03;21.47;;;1.50;99.90;;;;;;5014064;28;20286;-59
2022/01/16 08:39:04;;;;;;;28.97;22.50;;;1.50;99.90;;;;;;5023948;28;20216;-60
2022/01/16 08:41:30;;;;;;;27.70;21.80;;;1.60;99.90;;;;;;5033895;28;20548;-59
2022/01/16 08:43:56;;;;;;;26.47;20.87;;;1.80;99.90;;;;;;5033213;28;20401;-59
2022/01/16 08:46:23;;;;;;;30.20;22.30;;;1.70;99.90;;;;;;5033912;28;20406;-59
2022/01/16 08:48:49;;;;;;;31.03;23.10;;;2.00;99.90;;;;;;5033617;28;20190;-58
2022/01/16 08:51:15;;;;;;;26.20;21.03;;;2.20;99.90;;;;;;5033402;28;20883;-57
2022/01/16 08:53:41;;;;;;;29.07;22.57;;;2.40;99.90;;;;;;5022077;28;20457;-56
2022/01/16 08:56:06;;;;;;;26.43;19.97;;;2.30;99.90;;;;;;5013121;28;20183;-60
2022/01/16 08:58:32;;;;;;;27.83;21.23;;;2.10;99.90;;;;;;5011997;28;20435;-56
2022/01/16 09:00:57;;;;;;;27.80;21.30;;;2.40;99.90;;;;;;5014092;28;20718;-55
2022/01/16 09:03:24;;;;;;;27.07;20.93;;;2.60;99.90;;;;;;5017316;28;20247;-58
2022/01/16 09:05:51;;;;;;;29.80;23.03;;;2.60;99.90;;;;;;5017443;28;20188;-61
2022/01/16 09:08:18;;;;;;;28.03;20.80;;;2.80;99.90;;;;;;5021314;28;20437;-60
2022/01/16 09:10:44;;;;;;;28.47;22.30;;;2.50;99.90;;;;;;5037251;28;20468;-60
2022/01/16 09:13:11;;;;;;;27.20;20.77;;;2.30;99.90;;;;;;5036598;28;20828;-59
2022/01/16 09:15:40;;;;;;;25.80;20.10;;;2.20;99.90;;;;;;5036868;28;20769;-57
2022/01/16 09:18:06;;;;;;;29.30;21.67;;;2.20;99.90;;;;;;5036841;28;20480;-61
2022/01/16 09:20:33;;;;;;;31.17;22.40;;;2.40;99.90;;;;;;5036815;28;20497;-61
2022/01/16 09:22:59;;;;;;;29.90;24.30;;;2.60;99.90;;;;;;5036844;28;20163;-60
2022/01/16 09:25:25;;;;;;;27.30;21.30;;;2.70;99.90;;;;;;5036317;28;20405;-53
2022/01/16 09:27:52;;;;;;;28.03;22.63;;;2.80;99.90;;;;;;5018849;28;20490;-61
2022/01/16 09:30:18;;;;;;;34.40;24.90;;;2.80;99.90;;;;;;5036794;28;20171;-58
2022/01/16 09:32:44;;;;;;;29.17;23.73;;;2.60;99.90;;;;;;5036370;28;20410;-60
2022/01/16 09:35:11;;;;;;;26.67;22.23;;;2.60;99.90;;;;;;5037003;28;20539;-60
2022/01/16 09:37:37;;;;;;;25.90;21.40;;;2.60;99.90;;;;;;5036683;28;20449;-55
2022/01/16 09:40:07;;;;;;;25.73;21.83;;;2.70;99.90;;;;;;5036029;28;20512;-59
2022/01/16 09:42:34;;;;;;;26.40;20.57;;;2.60;99.90;;;;;;5035913;28;20410;-60
2022/01/16 09:45:00;;;;;;;23.47;19.80;;;2.50;99.90;;;;;;5036656;28;20523;-58
2022/01/16 09:47:25;;;;;;;27.30;22.07;;;2.70;99.90;;;;;;5036572;28;20439;-61
2022/01/16 09:49:51;;;;;;;27.60;22.47;;;2.80;99.90;;;;;;5036091;28;20495;-60
2022/01/16 09:52:18;;;;;;;25.57;21.07;;;2.90;99.90;;;;;;5036542;28;20199;-60
2022/01/16 09:54:43;;;;;;;26.97;22.23;;;3.20;99.90;;;;;;5035995;28;20410;-61
2022/01/16 09:57:12;;;;;;;32.50;24.10;;;3.50;99.90;;;;;;5035947;28;21179;-61
2022/01/16 09:59:37;;;;;;;24.00;20.27;;;3.70;99.90;;;;;;5035959;28;20206;-61
2022/01/16 10:02:05;;;;;;;34.70;22.63;;;3.70;99.90;;;;;;5035635;28;20911;-60
2022/01/16 10:04:35;;;;;;;27.23;22.23;;;3.70;99.90;;;;;;5035853;28;20209;-60
2022/01/16 10:07:14;;;;;;;29.43;23.80;;;3.60;99.90;;;;;;5036048;28;20725;-60
2022/01/16 10:09:42;;;;;;;27.30;20.63;;;3.70;99.90;;;;;;5035439;28;20426;-60
2022/01/16 10:12:17;;;;;;;25.83;22.00;;;3.90;99.90;;;;;;5035570;28;20410;-60
2022/01/16 10:14:48;;;;;;;23.83;19.80;;;4.20;99.90;;;;;;5035234;28;20385;-61
2022/01/16 10:17:43;;;;;;;25.00;20.80;;;4.00;99.90;;;;;;5035983;28;20426;-61
2022/01/16 10:20:09;;;;;;;26.70;21.20;;;4.10;99.90;;;;;;5034527;28;20489;-60
2022/01/16 10:22:41;;;;;;;24.63;21.00;;;4.20;99.90;;;;;;5036076;28;20401;-60
2022/01/16 10:25:07;;;;;;;26.60;21.63;;;4.40;99.90;;;;;;5017933;28;20410;-60
2022/01/16 10:27:44;;;;;;;25.00;21.33;;;4.50;99.90;;;;;;5035298;28;20416;-60
2022/01/16 10:30:14;;;;;;;27.03;21.67;;;4.50;99.90;;;;;;5035915;28;20917;-60
2022/01/16 10:32:44;;;;;;;24.40;20.37;;;4.50;99.90;;;;;;5035508;28;20410;-60
2022/01/16 10:35:12;;;;;;;24.43;19.90;;;4.30;99.90;;;;;;5035792;28;20895;-60
2022/01/16 10:37:43;;;;;;;24.97;21.27;;;4.60;99.90;;;;;;5035970;28;20456;-57
2022/01/16 10:40:09;;;;;;;25.07;22.00;;;4.70;99.90;;;;;;5035579;28;20418;-60
2022/01/16 10:42:36;;;;;;;24.30;20.63;;;5.00;99.90;;;;;;5035908;28;20398;-60
2022/01/16 10:45:11;;;;;;;27.10;21.43;;;5.10;99.90;;;;;;5035787;28;20460;-56
2022/01/16 10:47:45;;;;;;;23.03;19.83;;;5.10;99.90;;;;;;5036508;28;20766;-60
2022/01/16 10:50:15;;;;;;;26.93;21.63;;;5.10;99.90;;;;;;5036782;28;20385;-59
2022/01/16 10:52:52;;;;;;;23.73;20.33;;;5.30;99.90;;;;;;5036801;28;20406;-60
2022/01/16 10:55:20;;;;;;;26.53;21.73;;;5.50;99.90;;;;;;5034815;28;20393;-60
2022/01/16 10:57:46;;;;;;;25.53;22.13;;;5.40;99.90;;;;;;5034516;28;20481;-60
2022/01/16 11:00:13;;;;;;;28.00;23.00;;;5.30;99.90;;;;;;5035304;28;20818;-59
2022/01/16 11:02:47;;;;;;;28.00;21.10;;;5.30;99.90;;;;;;5034160;28;20405;-59
2022/01/16 11:05:14;;;;;;;26.87;21.87;;;5.20;99.90;;;;;;5014754;28;20462;-60
2022/01/16 11:07:42;;;;;;;27.50;23.33;;;5.40;99.90;;;;;;5014833;28;20450;-60
2022/01/16 11:10:29;;;;;;;27.10;22.77;;;5.40;99.90;;;;;;5033864;28;20461;-60
2022/01/16 11:12:58;;;;;;;26.30;22.00;;;5.10;99.90;;;;;;5032297;28;20807;-59
2022/01/16 11:15:24;;;;;;;34.93;26.20;;;4.90;99.90;;;;;;5006505;28;20852;-60
2022/01/16 11:17:51;;;;;;;27.67;23.53;;;4.80;99.90;;;;;;4995205;28;20455;-61
2022/01/16 11:20:22;;;;;;;29.30;22.00;;;4.80;99.90;;;;;;4995252;28;20441;-60
2022/01/16 11:23:00;;;;;;;31.03;24.13;;;5.00;99.90;;;;;;4994845;28;20438;-60
2022/01/16 11:25:31;;;;;;;27.07;22.27;;;4.90;99.90;;;;;;4994604;28;20380;-59
2022/01/16 11:28:03;;;;;;;26.00;22.23;;;4.60;99.90;;;;;;4994524;28;20419;-60
2022/01/16 11:30:31;;;;;;;26.60;23.13;;;4.70;99.90;;;;;;4995109;28;20391;-60
2022/01/16 11:32:57;;;;;;;28.17;23.30;;;5.00;99.90;;;;;;4995282;28;20408;-60
2022/01/16 11:35:28;;;;;;;31.00;23.07;;;5.00;99.90;;;;;;4994971;28;20407;-60
2022/01/16 11:37:55;;;;;;;28.50;23.20;;;4.90;99.90;;;;;;4997233;28;20833;-59
2022/01/16 11:40:25;;;;;;;29.03;23.50;;;5.00;99.90;;;;;;5033856;28;20398;-60
2022/01/16 11:43:12;;;;;;;30.40;25.43;;;5.00;99.90;;;;;;5033981;28;20382;-59
2022/01/16 11:45:49;;;;;;;28.83;21.37;;;4.80;99.90;;;;;;5033884;28;20397;-60
2022/01/16 11:48:46;;;;;;;30.00;24.67;;;4.70;99.90;;;;;;5033668;28;20506;-60
2022/01/16 11:51:40;;;;;;;32.27;24.30;;;4.90;99.90;;;;;;5034094;28;20462;-61
2022/01/16 11:54:19;;;;;;;33.90;26.00;;;5.00;99.90;;;;;;5033634;28;20469;-60
2022/01/16 11:56:44;;;;;;;34.67;26.10;;;5.00;99.90;;;;;;5033952;28;20426;-61
2022/01/16 11:59:25;;;;;;;33.77;24.90;;;4.80;99.90;;;;;;5033304;28;20429;-61
2022/01/16 12:01:56;;;;;;;33.60;26.00;;;4.80;99.90;;;;;;5033891;28;20151;-62
2022/01/16 12:04:30;;;;;;;29.47;24.00;;;4.80;99.90;;;;;;5033892;28;20414;-61
2022/01/16 12:07:17;;;;;;;36.70;27.20;;;4.80;99.90;;;;;;5033666;28;20488;-61
2022/01/16 12:12:14;;;;;;;38.50;27.17;;;4.50;99.90;;;;;;5034249;28;20505;-60
2022/01/16 12:14:51;;;;;;;38.50;28.97;;;4.40;99.90;;;;;;5033437;28;20493;-60
2022/01/16 12:17:27;;;;;;;38.67;27.83;;;4.40;99.90;;;;;;5033476;28;20437;-61
2022/01/16 12:19:53;;;;;;;36.07;27.00;;;4.30;99.90;;;;;;5033361;28;20430;-61
2022/01/16 12:22:46;;;;;;;33.10;24.87;;;4.10;99.90;;;;;;5033532;28;20736;-61
2022/01/16 12:25:22;;;;;;;37.00;24.83;;;4.10;99.90;;;;;;5033469;28;20465;-60
2022/01/16 12:28:01;;;;;;;41.47;26.07;;;4.20;99.90;;;;;;5033434;28;20402;-59
2022/01/16 12:30:32;;;;;;;32.93;25.13;;;4.40;99.90;;;;;;5033853;28;20402;-60
2022/01/16 12:33:11;;;;;;;33.37;25.10;;;4.50;99.90;;;;;;5033679;28;20402;-61
2022/01/16 12:35:39;;;;;;;30.10;21.63;;;4.50;99.90;;;;;;5033510;28;20440;-61
2022/01/16 12:38:13;;;;;;;29.20;20.60;;;4.50;99.90;;;;;;5036872;28;20553;-61
2022/01/16 12:40:43;;;;;;;32.53;22.60;;;4.60;99.90;;;;;;5037294;28;20394;-60
2022/01/16 12:43:13;;;;;;;30.60;23.37;;;4.60;99.90;;;;;;5037442;28;20427;-61
2022/01/16 12:45:41;;;;;;;27.03;20.00;;;4.70;99.90;;;;;;5037250;28;20818;-60
2022/01/16 12:48:07;;;;;;;31.30;22.30;;;4.70;99.90;;;;;;5021164;28;20799;-61
2022/01/16 12:50:34;;;;;;;27.33;20.20;;;4.70;99.90;;;;;;5017605;28;20798;-59
2022/01/16 12:53:00;;;;;;;21.17;16.60;;;4.70;99.90;;;;;;5017176;28;20499;-61
2022/01/16 12:55:27;;;;;;;22.50;17.50;;;4.70;99.90;;;;;;5014529;28;20833;-58
2022/01/16 12:57:53;;;;;;;20.00;16.27;;;4.80;99.90;;;;;;4996344;28;20188;-61
2022/01/16 13:00:19;;;;;;;22.20;16.27;;;4.90;99.90;;;;;;4997932;28;20404;-61
2022/01/16 13:02:52;;;;;;;20.93;15.37;;;4.80;99.90;;;;;;4997627;28;20192;-60
2022/01/16 13:05:21;;;;;;;19.00;14.67;;;4.80;99.90;;;;;;4997817;28;20766;-61
2022/01/16 13:07:46;;;;;;;18.13;13.00;;;4.90;99.90;;;;;;4997610;28;20908;-63
2022/01/16 13:10:12;;;;;;;15.60;12.63;;;4.80;99.90;;;;;;5036284;28;20409;-59
2022/01/16 13:12:38;;;;;;;20.77;15.23;;;4.70;99.90;;;;;;5023667;28;20238;-60
2022/01/16 13:15:04;;;;;;;15.73;11.70;;;4.80;99.90;;;;;;5016610;28;20168;-61
2022/01/16 13:17:32;;;;;;;14.90;11.73;;;4.80;99.90;;;;;;5016905;28;20203;-60
2022/01/16 13:19:59;;;;;;;19.13;12.90;;;4.80;99.90;;;;;;5016873;28;20418;-61
2022/01/16 13:22:30;;;;;;;17.10;11.63;;;4.90;99.90;;;;;;5015378;28;20415;-59
2022/01/16 13:25:03;;;;;;;16.00;12.50;;;4.80;99.90;;;;;;5016498;28;20407;-60
2022/01/16 13:27:32;;;;;;;17.70;12.57;;;4.80;99.90;;;;;;5017123;28;20441;-61
2022/01/16 13:30:06;;;;;;;14.90;11.27;;;4.80;99.90;;;;;;5016195;28;20562;-60